createdAt,value
2023-02-04T00:00:48.639Z,96428.00
2023-02-04T00:03:17.329Z,96432.88
2023-02-04T00:05:45.487Z,96432.06
2023-02-04T00:08:13.675Z,96434.09
2023-02-04T00:10:43.243Z,96435.53
2023-02-04T00:13:11.410Z,96441.59
2023-02-04T00:15:39.824Z,96443.63
2023-02-04T00:18:09.534Z,96442.00
2023-02-04T00:20:37.647Z,96446.28
2023-02-04T00:23:05.853Z,96450.34
2023-02-04T00:25:34.001Z,96443.66
2023-02-04T00:28:04.224Z,96450.34
2023-02-04T00:30:33.398Z,96454.00
2023-02-04T00:33:01.672Z,96458.66
2023-02-04T00:35:29.850Z,96458.66
2023-02-04T00:37:58.017Z,96462.72
2023-02-04T00:40:27.186Z,96458.25
2023-02-04T00:42:55.628Z,96462.91
2023-02-04T00:45:25.313Z,96465.16
2023-02-04T00:47:53.552Z,96467.19
2023-02-04T00:50:21.682Z,96472.66
2023-02-04T00:52:49.862Z,96483.03
2023-02-04T00:55:18.339Z,96487.69
2023-02-04T00:57:47.644Z,96480.81
2023-02-04T01:00:16.624Z,96491.16
2023-02-04T01:02:46.956Z,96495.84
2023-02-04T01:05:15.168Z,96510.69
2023-02-04T01:07:43.362Z,96521.00
2023-02-04T01:10:12.222Z,96518.16
2023-02-04T01:12:40.384Z,96516.72
2023-02-04T01:15:09.332Z,96527.28
2023-02-04T01:17:37.507Z,96538.25
2023-02-04T01:20:07.700Z,96534.19
2023-02-04T01:22:36.153Z,96542.50
2023-02-04T01:25:04.698Z,96526.03
2023-02-04T01:27:42.750Z,96528.88
2023-02-04T01:30:12.098Z,96567.66
2023-02-04T01:32:40.337Z,96635.28
2023-02-04T01:35:10.637Z,96643.25
2023-02-04T01:37:40.131Z,96648.88
2023-02-04T01:40:09.510Z,96653.63
2023-02-04T01:42:37.647Z,96664.06
2023-02-04T01:45:07.397Z,96678.19
2023-02-04T01:47:35.698Z,96670.84
2023-02-04T01:50:03.909Z,96677.31
2023-02-04T01:52:35.944Z,96675.44
2023-02-04T01:55:04.272Z,96685.16
2023-02-04T01:57:38.455Z,96693.59
2023-02-04T02:00:08.352Z,96704.13
2023-02-04T02:02:46.793Z,96706.75
2023-02-04T02:05:17.736Z,96709.03
2023-02-04T02:07:47.412Z,96718.94
2023-02-04T02:10:15.697Z,96712.22
2023-02-04T02:12:44.360Z,96717.28
2023-02-04T02:15:12.875Z,96724.38
2023-02-04T02:17:41.360Z,96730.63
2023-02-04T02:20:10.076Z,96733.28
2023-02-04T02:22:40.254Z,96736.09
2023-02-04T02:25:13.852Z,96737.13
2023-02-04T02:27:44.256Z,96743.19
2023-02-04T02:30:14.948Z,96747.00
2023-02-04T02:32:43.441Z,96751.63
2023-02-04T02:35:11.636Z,96756.09
2023-02-04T02:37:39.829Z,96769.06
2023-02-04T02:40:08.746Z,96764.63
2023-02-04T02:42:38.347Z,96781.59
2023-02-04T02:45:08.469Z,96784.69
2023-02-04T02:47:36.958Z,96794.13
2023-02-04T02:50:05.551Z,96798.22
2023-02-04T02:52:33.667Z,96801.19
2023-02-04T02:55:02.626Z,96805.47
2023-02-04T02:57:31.498Z,96815.84
2023-02-04T03:00:01.444Z,96811.56
2023-02-04T03:02:30.776Z,96825.72
2023-02-04T03:05:00.868Z,96819.47
2023-02-04T03:07:31.633Z,96821.91
2023-02-04T03:09:59.845Z,96837.88
2023-02-04T03:12:28.329Z,96841.69
2023-02-04T03:14:56.593Z,96842.25
2023-02-04T03:17:26.159Z,96848.97
2023-02-04T03:19:54.334Z,96848.34
2023-02-04T03:22:22.609Z,96861.69
2023-02-04T03:24:51.519Z,96867.94
2023-02-04T03:27:20.443Z,96876.00
2023-02-04T03:29:48.676Z,96877.81
2023-02-04T03:32:16.868Z,96893.63
2023-02-04T03:34:46.489Z,96892.63
2023-02-04T03:37:14.645Z,96901.72
2023-02-04T03:39:43.101Z,96909.16
2023-02-04T03:42:11.245Z,96915.22
2023-02-04T03:44:39.448Z,96917.69
2023-02-04T03:47:07.583Z,96934.81
2023-02-04T03:49:36.542Z,96927.47
2023-02-04T03:52:06.580Z,96936.72
2023-02-04T03:54:34.770Z,96934.09
2023-02-04T03:57:02.972Z,96945.25
2023-02-04T03:59:31.091Z,96947.41
2023-02-04T04:01:59.373Z,96955.31
2023-02-04T04:04:27.625Z,96952.69
2023-02-04T04:06:56.598Z,96950.53
2023-02-04T04:09:26.350Z,96963.38
2023-02-04T04:11:54.498Z,96977.34
2023-02-04T04:14:22.647Z,96974.06
2023-02-04T04:16:50.951Z,96986.91
2023-02-04T04:19:19.409Z,96990.69
2023-02-04T04:21:47.561Z,96987.88
2023-02-04T04:24:15.836Z,96988.53
2023-02-04T04:26:45.365Z,96997.09
2023-02-04T04:29:13.567Z,97004.81
2023-02-04T04:31:41.904Z,97008.78
2023-02-04T04:34:10.528Z,97013.38
2023-02-04T04:36:38.923Z,97022.09
2023-02-04T04:39:07.079Z,97019.63
2023-02-04T04:41:35.212Z,97022.63
2023-02-04T04:44:04.773Z,97025.28
2023-02-04T04:46:33.259Z,97024.28
2023-02-04T04:49:01.433Z,97028.06
2023-02-04T04:51:31.937Z,97029.22
2023-02-04T04:54:00.203Z,97024.97
2023-02-04T04:56:28.393Z,97027.25
2023-02-04T04:58:56.559Z,97029.41
2023-02-04T05:01:26.422Z,97023.16
2023-02-04T05:03:54.580Z,97028.41
2023-02-04T05:06:25.434Z,97049.00
2023-02-04T05:08:53.593Z,97041.47
2023-02-04T05:11:21.798Z,97054.63
2023-02-04T05:13:50.228Z,97055.44
2023-02-04T05:16:18.491Z,97055.59
2023-02-04T05:18:48.027Z,97062.19
2023-02-04T05:21:16.185Z,97052.69
2023-02-04T05:23:44.373Z,97076.38
2023-02-04T05:26:19.530Z,97081.44
2023-02-04T05:28:53.640Z,97082.41
2023-02-04T05:31:21.889Z,97090.31
2023-02-04T05:33:51.556Z,97102.47
2023-02-04T05:36:19.690Z,97108.28
2023-02-04T05:38:47.817Z,97112.38
2023-02-04T05:41:16.281Z,97126.84
2023-02-04T05:43:44.696Z,97132.59
2023-02-04T05:46:12.974Z,97141.31
2023-02-04T05:48:41.334Z,97148.19
2023-02-04T05:51:10.986Z,97148.19
2023-02-04T05:53:39.168Z,97150.53
2023-02-04T05:56:07.896Z,97169.44
2023-02-04T05:58:36.066Z,97188.19
2023-02-04T06:01:04.307Z,97186.56
2023-02-04T06:03:32.759Z,97187.06
2023-02-04T06:06:00.987Z,97200.72
2023-02-04T06:08:30.831Z,97202.03
2023-02-04T06:10:59.057Z,97205.97
2023-02-04T06:13:27.241Z,97205.66
2023-02-04T06:15:55.464Z,97210.72
2023-02-04T06:18:23.664Z,97217.00
2023-02-04T06:20:52.184Z,97220.78
2023-02-04T06:23:20.308Z,97224.06
2023-02-04T06:25:50.412Z,97220.78
2023-02-04T06:28:18.628Z,97226.22
2023-02-04T06:30:46.861Z,97242.81
2023-02-04T06:33:15.057Z,97241.50
2023-02-04T06:35:43.498Z,97249.75
2023-02-04T06:38:11.604Z,97249.91
2023-02-04T06:40:39.776Z,97256.31
2023-02-04T06:43:09.337Z,97247.44
2023-02-04T06:45:37.453Z,97244.13
2023-02-04T06:48:06.088Z,97259.75
2023-02-04T06:50:34.300Z,97260.56
2023-02-04T06:53:02.433Z,97266.00
2023-02-04T06:55:30.602Z,97274.38
2023-02-04T06:57:58.756Z,97274.03
2023-02-04T07:00:28.306Z,97279.16
2023-02-04T07:02:57.893Z,97270.59
2023-02-04T07:05:26.130Z,97275.38
2023-02-04T07:07:54.347Z,97278.97
2023-02-04T07:10:22.540Z,97277.00
2023-02-04T07:12:50.713Z,97283.41
2023-02-04T07:15:18.972Z,97291.81
2023-02-04T07:17:48.805Z,97297.53
2023-02-04T07:20:17.052Z,97305.13
2023-02-04T07:22:45.182Z,97299.34
2023-02-04T07:25:15.048Z,97309.56
2023-02-04T07:27:43.235Z,97303.78
2023-02-04T07:30:12.744Z,97315.78
2023-02-04T07:32:40.882Z,97321.38
2023-02-04T07:35:11.841Z,97330.09
2023-02-04T07:37:40.091Z,97323.00
2023-02-04T07:40:09.172Z,97332.56
2023-02-04T07:42:37.336Z,97342.59
2023-02-04T07:45:12.502Z,97339.00
2023-02-04T07:47:40.628Z,97348.53
2023-02-04T07:50:10.854Z,97358.84
2023-02-04T07:52:38.985Z,97357.22
2023-02-04T07:55:07.981Z,97364.31
2023-02-04T07:57:36.444Z,97369.06
2023-02-04T08:00:05.283Z,97379.75
2023-02-04T08:02:41.162Z,97376.97
2023-02-04T08:05:11.073Z,97385.81
2023-02-04T08:07:39.228Z,97389.44
2023-02-04T08:10:08.394Z,97403.91
2023-02-04T08:12:36.557Z,97400.13
2023-02-04T08:15:05.013Z,97415.91
2023-02-04T08:17:33.163Z,97412.78
2023-02-04T08:20:01.339Z,97416.72
2023-02-04T08:22:30.840Z,97417.53
2023-02-04T08:24:59.285Z,97421.81
2023-02-04T08:27:27.490Z,97426.94
2023-02-04T08:29:55.848Z,97429.06
2023-02-04T08:32:24.100Z,97436.47
2023-02-04T08:34:52.339Z,97445.34
2023-02-04T08:37:20.845Z,97453.06
2023-02-04T08:39:50.483Z,97454.38
2023-02-04T08:42:18.670Z,97460.97
2023-02-04T08:44:46.811Z,97457.34
2023-02-04T08:47:15.082Z,97465.25
2023-02-04T08:49:43.341Z,97466.69
2023-02-04T08:52:11.574Z,97474.13
2023-02-04T08:54:39.811Z,97470.66
2023-02-04T08:57:09.519Z,97475.25
2023-02-04T08:59:37.736Z,97477.56
2023-02-04T09:02:05.962Z,97485.44
2023-02-04T09:04:34.591Z,97486.25
2023-02-04T09:07:03.016Z,97498.59
2023-02-04T09:09:31.282Z,97492.16
2023-02-04T09:11:59.448Z,97508.84
2023-02-04T09:14:29.112Z,97510.16
2023-02-04T09:16:57.644Z,97515.91
2023-02-04T09:19:26.549Z,97513.91
2023-02-04T09:21:54.880Z,97517.91
2023-02-04T09:24:24.268Z,97517.59
2023-02-04T09:26:52.437Z,97520.22
2023-02-04T09:29:20.709Z,97525.31
2023-02-04T09:31:50.353Z,97534.88
2023-02-04T09:34:18.994Z,97532.75
2023-02-04T09:36:47.344Z,97535.84
2023-02-04T09:39:15.683Z,97536.84
2023-02-04T09:41:44.274Z,97537.50
2023-02-04T09:44:15.359Z,97546.53
2023-02-04T09:46:43.829Z,97551.97
2023-02-04T09:49:13.699Z,97557.75
2023-02-04T09:51:42.712Z,97553.47
2023-02-04T09:54:13.531Z,97564.66
2023-02-04T09:56:41.822Z,97562.66
2023-02-04T09:59:12.726Z,97573.53
2023-02-04T10:01:41.305Z,97580.75
2023-02-04T10:04:10.560Z,97576.16
2023-02-04T10:06:40.155Z,97581.91
2023-02-04T10:09:08.313Z,97582.13
2023-02-04T10:11:37.827Z,97582.13
2023-02-04T10:14:05.983Z,97582.31
2023-02-04T10:16:34.731Z,97581.28
2023-02-04T10:19:04.102Z,97591.50
2023-02-04T10:21:33.357Z,97600.56
2023-02-04T10:24:03.838Z,97589.88
2023-02-04T10:26:32.688Z,97595.94
2023-02-04T10:29:01.788Z,97602.19
2023-02-04T10:31:31.629Z,97606.97
2023-02-04T10:34:12.953Z,97602.66
2023-02-04T10:36:41.748Z,97609.94
2023-02-04T10:39:14.895Z,97604.50
2023-02-04T10:41:49.829Z,97604.00
2023-02-04T10:44:19.311Z,97605.16
2023-02-04T10:46:48.386Z,97601.22
2023-02-04T10:49:21.988Z,97604.69
2023-02-04T10:51:51.013Z,97604.69
2023-02-04T10:54:33.896Z,97608.31
2023-02-04T10:57:07.675Z,97609.31
2023-02-04T10:59:35.826Z,97605.03
2023-02-04T11:02:07.291Z,97612.63
2023-02-04T11:04:35.446Z,97605.34
2023-02-04T11:07:03.596Z,97606.00
2023-02-04T11:09:33.468Z,97608.31
2023-02-04T11:12:01.725Z,97600.25
2023-02-04T11:14:30.662Z,97609.63
2023-02-04T11:17:01.620Z,97614.41
2023-02-04T11:19:37.426Z,97609.47
2023-02-04T11:22:07.717Z,97608.81
2023-02-04T11:24:37.552Z,97605.00
2023-02-04T11:27:19.123Z,97618.19
2023-02-04T11:29:48.054Z,97623.44
2023-02-04T11:32:32.834Z,97624.25
2023-02-04T11:35:27.009Z,97621.41
2023-02-04T11:37:56.026Z,97617.78
2023-02-04T11:40:27.933Z,97621.09
2023-02-04T11:43:04.240Z,97626.19
2023-02-04T11:45:34.216Z,97629.31
2023-02-04T11:48:03.838Z,97623.38
2023-02-04T11:50:33.226Z,97631.78
2023-02-04T11:53:02.463Z,97637.56
2023-02-04T11:55:33.052Z,97641.38
2023-02-04T11:58:01.397Z,97634.81
2023-02-04T12:00:30.946Z,97631.03
2023-02-04T12:03:00.294Z,97635.28
2023-02-04T12:05:40.792Z,97630.38
2023-02-04T12:08:13.345Z,97634.66
2023-02-04T12:10:49.201Z,97643.38
2023-02-04T12:13:19.351Z,97645.00
2023-02-04T12:15:54.384Z,97638.53
2023-02-04T12:18:22.560Z,97646.09
2023-02-04T12:20:50.719Z,97638.19
2023-02-04T12:23:18.900Z,97649.06
2023-02-04T12:25:48.476Z,97643.63
2023-02-04T12:28:16.760Z,97643.47
2023-02-04T12:30:45.028Z,97644.38
2023-02-04T12:33:14.978Z,97647.53
2023-02-04T12:35:43.325Z,97641.41
2023-02-04T12:38:11.468Z,97646.53
2023-02-04T12:40:39.590Z,97651.81
2023-02-04T12:43:09.116Z,97644.91
2023-02-04T12:45:37.891Z,97649.91
2023-02-04T12:48:06.231Z,97649.75
2023-02-04T12:50:34.447Z,97646.81
2023-02-04T12:53:02.676Z,97643.50
2023-02-04T12:55:31.360Z,97646.03
2023-02-04T12:57:59.838Z,97644.03
2023-02-04T13:00:29.823Z,97647.84
2023-02-04T13:02:59.250Z,97650.97
2023-02-04T13:05:27.632Z,97648.84
2023-02-04T13:07:55.840Z,97652.44
2023-02-04T13:10:24.119Z,97654.06
2023-02-04T13:12:52.655Z,97650.75
2023-02-04T13:15:20.973Z,97651.44
2023-02-04T13:17:50.809Z,97653.56
2023-02-04T13:20:19.266Z,97653.56
2023-02-04T13:22:47.451Z,97649.66
2023-02-04T13:25:15.589Z,97646.53
2023-02-04T13:27:44.095Z,97646.84
2023-02-04T13:30:13.125Z,97651.28
2023-02-04T13:32:41.986Z,97650.00
2023-02-04T13:35:11.548Z,97655.09
2023-02-04T13:37:39.914Z,97663.00
2023-02-04T13:40:09.565Z,97669.91
2023-02-04T13:42:37.709Z,97659.22
2023-02-04T13:45:07.932Z,97666.28
2023-02-04T13:47:36.105Z,97669.75
2023-02-04T13:50:04.511Z,97674.88
2023-02-04T13:52:34.673Z,97672.06
2023-02-04T13:55:03.113Z,97673.56
2023-02-04T13:57:32.944Z,97674.03
2023-02-04T14:00:01.307Z,97678.50
2023-02-04T14:02:29.541Z,97667.63
2023-02-04T14:04:58.605Z,97663.16
2023-02-04T14:07:27.106Z,97667.47
2023-02-04T14:09:56.979Z,97667.47
2023-02-04T14:12:25.157Z,97673.38
2023-02-04T14:14:53.493Z,97681.13
2023-02-04T14:17:21.677Z,97682.47
2023-02-04T14:19:50.078Z,97684.28
2023-02-04T14:22:18.301Z,97680.81
2023-02-04T14:24:47.658Z,97690.19
2023-02-04T14:27:18.932Z,97685.41
2023-02-04T14:29:47.135Z,97678.66
2023-02-04T14:32:15.273Z,97680.31
2023-02-04T14:34:43.722Z,97692.34
2023-02-04T14:37:11.932Z,97688.22
2023-02-04T14:39:40.080Z,97684.94
2023-02-04T14:42:08.262Z,97688.06
2023-02-04T14:44:37.819Z,97689.19
2023-02-04T14:47:06.343Z,97687.22
2023-02-04T14:49:37.173Z,97687.72
2023-02-04T14:52:05.842Z,97683.63
2023-02-04T14:54:34.061Z,97685.41
2023-02-04T14:57:02.278Z,97686.41
2023-02-04T14:59:30.714Z,97685.75
2023-02-04T15:02:00.325Z,97681.75
2023-02-04T15:04:29.510Z,97676.84
2023-02-04T15:06:58.009Z,97677.81
2023-02-04T15:09:26.303Z,97676.34
2023-02-04T15:11:54.457Z,97680.09
2023-02-04T15:14:22.875Z,97680.09
2023-02-04T15:16:51.107Z,97673.34
2023-02-04T15:19:21.651Z,97680.47
2023-02-04T15:21:50.160Z,97684.22
2023-02-04T15:24:18.355Z,97688.16
2023-02-04T15:26:46.517Z,97686.66
2023-02-04T15:29:14.953Z,97688.81
2023-02-04T15:31:43.239Z,97693.41
2023-02-04T15:34:11.511Z,97695.88
2023-02-04T15:36:41.048Z,97697.16
2023-02-04T15:39:09.232Z,97696.00
2023-02-04T15:41:37.677Z,97697.31
2023-02-04T15:44:06.186Z,97699.44
2023-02-04T15:46:34.937Z,97705.19
2023-02-04T15:49:03.260Z,97705.81
2023-02-04T15:51:31.526Z,97708.09
2023-02-04T15:54:01.094Z,97702.34
2023-02-04T15:56:29.545Z,97716.94
2023-02-04T15:58:57.801Z,97720.22
2023-02-04T16:01:25.965Z,97713.44
2023-02-04T16:03:56.529Z,97723.31
2023-02-04T16:06:24.729Z,97721.50
2023-02-04T16:08:53.570Z,97721.78
2023-02-04T16:11:23.473Z,97719.13
2023-02-04T16:13:51.582Z,97724.72
2023-02-04T16:16:20.361Z,97716.31
2023-02-04T16:18:48.569Z,97721.72
2023-02-04T16:21:16.696Z,97725.19
2023-02-04T16:23:45.213Z,97728.94
2023-02-04T16:26:13.448Z,97730.09
2023-02-04T16:28:42.996Z,97735.94
2023-02-04T16:31:11.290Z,97739.88
2023-02-04T16:33:39.523Z,97739.34
2023-02-04T16:36:11.717Z,97728.00
2023-02-04T16:38:40.003Z,97738.53
2023-02-04T16:41:08.193Z,97742.81
2023-02-04T16:43:36.394Z,97742.97
2023-02-04T16:46:06.444Z,97739.50
2023-02-04T16:48:36.205Z,97738.69
2023-02-04T16:51:04.459Z,97743.28
2023-02-04T16:53:32.652Z,97754.78
2023-02-04T16:56:02.629Z,97751.19
2023-02-04T16:58:30.764Z,97744.41
2023-02-04T17:00:59.952Z,97754.78
2023-02-04T17:03:29.839Z,97754.59
2023-02-04T17:05:58.150Z,97761.53
2023-02-04T17:08:26.388Z,97756.94
2023-02-04T17:11:11.997Z,97756.78
2023-02-04T17:13:40.106Z,97763.72
2023-02-04T17:16:08.692Z,97765.38
2023-02-04T17:18:38.355Z,97768.00
2023-02-04T17:21:06.874Z,97771.59
2023-02-04T17:23:35.490Z,97768.13
2023-02-04T17:26:03.732Z,97764.97
2023-02-04T17:28:31.922Z,97768.75
2023-02-04T17:31:00.474Z,97766.13
2023-02-04T17:33:29.173Z,97764.78
2023-02-04T17:35:58.856Z,97766.72
2023-02-04T17:38:28.094Z,97763.59
2023-02-04T17:40:56.420Z,97769.69
2023-02-04T17:43:25.854Z,97772.47
2023-02-04T17:45:54.081Z,97763.88
2023-02-04T17:48:22.276Z,97763.50
2023-02-04T17:50:50.438Z,97763.50
2023-02-04T17:53:20.918Z,97763.69
2023-02-04T17:55:49.106Z,97756.91
2023-02-04T17:58:18.510Z,97759.69
2023-02-04T18:00:47.023Z,97754.38
2023-02-04T18:03:16.362Z,97757.44
2023-02-04T18:05:46.132Z,97762.03
2023-02-04T18:08:15.622Z,97764.44
2023-02-04T18:10:46.073Z,97761.78
2023-02-04T18:13:16.056Z,97765.41
2023-02-04T18:15:45.817Z,97766.00
2023-02-04T18:18:19.895Z,97772.38
2023-02-04T18:20:48.138Z,97770.88
2023-02-04T18:23:17.030Z,97772.84
2023-02-04T18:25:48.570Z,97776.59
2023-02-04T18:28:17.909Z,97775.22
2023-02-04T18:30:46.208Z,97769.31
2023-02-04T18:33:19.338Z,97769.75
2023-02-04T18:35:50.327Z,97770.56
2023-02-04T18:38:23.974Z,97776.66
2023-02-04T18:40:56.951Z,97774.16
2023-02-04T18:43:26.193Z,97774.31
2023-02-04T18:45:54.469Z,97770.72
2023-02-04T18:48:54.953Z,97767.25
2023-02-04T18:51:31.704Z,97759.69
2023-02-04T18:54:01.676Z,97764.28
2023-02-04T18:56:37.049Z,97763.31
2023-02-04T18:59:13.325Z,97768.84
2023-02-04T19:01:41.522Z,97773.56
2023-02-04T19:04:14.568Z,97768.44
2023-02-04T19:06:44.497Z,97777.47
2023-02-04T19:09:17.716Z,97779.41
2023-02-04T19:11:48.009Z,97776.78
2023-02-04T19:14:19.478Z,97773.47
2023-02-04T19:16:48.199Z,97780.66
2023-02-04T19:19:33.044Z,97776.38
2023-02-04T19:22:01.283Z,97778.34
2023-02-04T19:24:29.819Z,97778.50
2023-02-04T19:27:00.102Z,97779.47
2023-02-04T19:29:37.805Z,97777.13
2023-02-04T19:32:22.977Z,97784.47
2023-02-04T19:34:51.335Z,97782.28
2023-02-04T19:37:21.786Z,97786.31
2023-02-04T19:39:50.004Z,97792.81
2023-02-04T19:42:25.874Z,97788.84
2023-02-04T19:44:54.093Z,97787.19
2023-02-04T19:47:27.398Z,97798.25
2023-02-04T19:50:01.837Z,97786.25
2023-02-04T19:52:36.661Z,97784.06
2023-02-04T19:55:36.575Z,97791.53
2023-02-04T19:58:16.697Z,97793.47
2023-02-04T20:00:46.931Z,97786.72
2023-02-04T20:03:27.781Z,97785.06
2023-02-04T20:05:56.061Z,97775.25
2023-02-04T20:08:44.158Z,97782.84
2023-02-04T20:11:34.910Z,97783.38
2023-02-04T20:14:25.046Z,97791.94
2023-02-04T20:16:54.032Z,97793.44
2023-02-04T20:19:23.044Z,97803.81
2023-02-04T20:22:33.336Z,97801.00
2023-02-04T20:25:42.550Z,97808.59
2023-02-04T20:28:38.454Z,97811.09
2023-02-04T20:31:23.619Z,97808.31
2023-02-04T20:33:52.413Z,97812.59
2023-02-04T20:36:34.350Z,97819.66
2023-02-04T20:39:44.213Z,97825.88
2023-02-04T20:42:45.526Z,97824.22
2023-02-04T20:45:32.780Z,97831.25
2023-02-04T20:48:11.996Z,97847.69
2023-02-04T20:50:41.765Z,97843.13
2023-02-04T20:53:25.618Z,97842.44
2023-02-04T20:55:55.418Z,97841.75
2023-02-04T20:58:24.196Z,97841.63
2023-02-04T21:00:54.082Z,97843.41
2023-02-04T21:03:28.746Z,97848.09
2023-02-04T21:05:58.474Z,97851.56
2023-02-04T21:08:38.287Z,97859.44
2023-02-04T21:11:06.679Z,97854.03
2023-02-04T21:13:34.926Z,97847.97
2023-02-04T21:16:03.233Z,97845.47
2023-02-04T21:18:34.611Z,97849.75
2023-02-04T21:21:03.183Z,97842.59
2023-02-04T21:23:31.717Z,97843.53
2023-02-04T21:25:59.885Z,97848.53
2023-02-04T21:28:28.025Z,97851.84
2023-02-04T21:30:56.296Z,97848.63
2023-02-04T21:33:24.528Z,97845.03
2023-02-04T21:35:54.425Z,97843.09
2023-02-04T21:38:22.604Z,97842.28
2023-02-04T21:40:50.750Z,97836.31
2023-02-04T21:43:19.008Z,97844.34
2023-02-04T21:45:47.159Z,97843.50
2023-02-04T21:48:15.834Z,97847.09
2023-02-04T21:50:44.063Z,97852.06
2023-02-04T21:53:13.641Z,97847.66
2023-02-04T21:55:41.846Z,97846.38
2023-02-04T21:58:10.012Z,97847.22
2023-02-04T22:00:38.206Z,97852.78
2023-02-04T22:03:10.357Z,97853.03
2023-02-04T22:05:38.556Z,97861.06
2023-02-04T22:08:06.688Z,97864.78
2023-02-04T22:10:36.208Z,97866.06
2023-02-04T22:13:22.067Z,97856.53
2023-02-04T22:15:50.248Z,97855.84
2023-02-04T22:18:18.457Z,97853.22
2023-02-04T22:20:46.628Z,97858.47
2023-02-04T22:23:16.524Z,97856.66
2023-02-04T22:25:46.077Z,97851.16
2023-02-04T22:28:14.276Z,97852.63
2023-02-04T22:30:42.784Z,97845.44
2023-02-04T22:33:11.786Z,97849.59
2023-02-04T22:35:39.944Z,97846.00
2023-02-04T22:38:08.089Z,97844.06
2023-02-04T22:40:36.244Z,97846.00
2023-02-04T22:43:06.088Z,97843.78
2023-02-04T22:45:34.519Z,97840.66
2023-02-04T22:48:02.832Z,97827.66
2023-02-04T22:50:31.030Z,97828.50
2023-02-04T22:52:59.215Z,97827.66
2023-02-04T22:55:27.427Z,97821.72
2023-02-04T22:57:55.840Z,97817.59
2023-02-04T23:00:25.746Z,97813.47
2023-02-04T23:02:54.287Z,97817.06
2023-02-04T23:05:22.421Z,97819.00
2023-02-04T23:07:50.581Z,97820.94
2023-02-04T23:10:19.143Z,97824.25
2023-02-04T23:12:47.653Z,97837.63
2023-02-04T23:15:16.286Z,97830.06
2023-02-04T23:17:45.915Z,97828.41
2023-02-04T23:20:14.122Z,97839.88
2023-02-04T23:23:28.659Z,97840.84
2023-02-04T23:26:05.003Z,97844.56
2023-02-04T23:28:33.537Z,97843.22
2023-02-04T23:31:02.346Z,97832.03
2023-02-04T23:33:32.038Z,97837.81
2023-02-04T23:36:00.240Z,97839.47
2023-02-04T23:38:31.039Z,97844.88
2023-02-04T23:41:00.277Z,97837.44
2023-02-04T23:43:28.631Z,97831.75
2023-02-04T23:45:57.709Z,97827.53
2023-02-04T23:48:25.861Z,97828.47
2023-02-04T23:50:58.146Z,97822.69
2023-02-04T23:53:26.683Z,97821.03
2023-02-04T23:55:54.793Z,97821.47
2023-02-04T23:58:23.051Z,97823.38
